El Jebel, Colorado
Current Conditions -  °F | °C
As of 2:57 AM on Thursday 23 Oct 2014 (Local Time) from K5SM Reporting Station
Clear Clear  
Wind Chill: 36°   Ceiling: Unl
Heat Index: 36°   Visibility: 10mi
Dew Point: 30°   Wind: 0mph
Humidity: 81%   Direction: NA
Pressure: 30.44"   Gusts: NA
Location:  39.4°N, 107.09°W
Report Text: K5SM 230857Z AUTO 00000KT 10SM CLR 02/M01 A3044 RMK AO2
Loading
Personal Weather Stations






























Interactive Weather Map
Tropical Storm Tracking
New forecast layout! Learn more

10-Day Weather Forecast

Advertisements
Track Severe Weather on mobile